Fredonyer Smt Atmospheric Data: 03/22/2019 Summary  Detailed Graphs  Station List

  Temperature     Wind Precipitation Visibility
Timestamp Air Wet
Bulb
Dew-
point
24-hr
Max
24-hr
Min
Relative
Humidity
Atmospheric
Pressure
Avg
Speed
Avg
Dir
Spot
Speed
Spot
Dir
Max
Speed
Max
Dir
  Rate Situation Start End 1 hr 3 hr 6 hr 12 hr 24 hr   Situation
Date Time °F °F °F °F °F % in Hg mph ° mph ° mph ° Y/N in/hr text Date Time Date Time in in in in in mi text
03/22/2019 12:02 AM 30.20 30.02 29.66 44.96 28.04 97.0 Not Reported 2.68 W 2.46 SW 4.47 SW No 0.000 Error:Lookup 03/20/2019 02:17 PM 03/20/2019 02:22 PM 0.000 0.000 0.000 0.000 0.000 Not Reported Not Reported
03/22/2019 12:07 AM 30.56 30.38 30.20 44.96 28.04 97.0 Not Reported 2.68 W 3.13 W 4.47 SW No 0.000 Error:Lookup 03/20/2019 02:17 PM 03/20/2019 02:22 PM 0.000 0.000 0.000 0.000 0.000 Not Reported Not Reported
03/22/2019 12:12 AM 30.74 30.38 30.20 44.96 28.04 97.0 Not Reported 3.36 SW 4.70 W 3.58 SW No 0.000 Error:Lookup 03/20/2019 02:17 PM 03/20/2019 02:22 PM 0.000 0.000 0.000 0.000 0.000 Not Reported Not Reported
03/22/2019 12:17 AM 30.74 30.56 30.20 44.96 28.04 97.0 Not Reported 2.91 W 2.68 W 3.58 SW No 0.000 Error:Lookup 03/20/2019 02:17 PM 03/20/2019 02:22 PM 0.000 0.000 0.000 0.000 0.000 Not Reported Not Reported
03/22/2019 12:22 AM 30.38 30.20 29.84 44.96 28.04 97.0 Not Reported 2.01 W 1.79 SW 4.70 W No 0.000 Error:Lookup 03/20/2019 02:17 PM 03/20/2019 02:22 PM 0.000 0.000 0.000 0.000 0.000 Not Reported Not Reported
03/22/2019 12:27 AM 30.38 30.02 29.84 44.96 28.04 97.0 Not Reported 1.79 W 1.57 W 4.70 W No 0.000 Error:Lookup 03/20/2019 02:17 PM 03/20/2019 02:22 PM 0.000 0.000 0.000 0.000 0.000 Not Reported Not Reported
03/22/2019 12:32 AM 30.20 30.02 29.84 44.96 28.04 97.0 Not Reported 1.57 W 1.79 W 2.68 W No 0.000 Error:Lookup 03/20/2019 02:17 PM 03/20/2019 02:22 PM 0.000 0.000 0.000 0.000 0.000 Not Reported Not Reported
03/22/2019 12:37 AM 29.84 29.66 29.30 44.96 28.04 97.0 Not Reported 2.24 SW 2.91 W 2.68 W No 0.000 Error:Lookup 03/20/2019 02:17 PM 03/20/2019 02:22 PM 0.000 0.000 0.000 0.000 0.000 Not Reported Not Reported
03/22/2019 12:42 AM 29.48 29.30 29.12 44.96 28.04 98.0 Not Reported 1.57 NW 1.12 NW 3.13 W No 0.000 Error:Lookup 03/20/2019 02:17 PM 03/20/2019 02:22 PM 0.000 0.000 0.000 0.000 0.000 Not Reported Not Reported
03/22/2019 12:47 AM 29.48 29.30 28.94 44.96 28.04 98.0 Not Reported 1.57 W 1.79 W 3.13 W No 0.000 Error:Lookup 03/20/2019 02:17 PM 03/20/2019 02:22 PM 0.000 0.000 0.000 0.000 0.000 Not Reported Not Reported
03/22/2019 12:52 AM 29.48 29.30 28.94 44.96 28.04 98.0 Not Reported 1.79 W 1.57 W 2.68 W No 0.000 Error:Lookup 03/20/2019 02:17 PM 03/20/2019 02:22 PM 0.000 0.000 0.000 0.000 0.000 Not Reported Not Reported
03/22/2019 12:57 AM 29.30 29.12 28.94 44.96 28.04 98.0 Not Reported 1.57 W 1.79 W 2.68 W No 0.000 Error:Lookup 03/20/2019 02:17 PM 03/20/2019 02:22 PM 0.000 0.000 0.000 0.000 0.000 Not Reported Not Reported
03/22/2019 01:02 AM 29.30 29.30 28.94 44.96 28.04 98.0 Not Reported 3.36 W 3.58 SW 3.58 W No 0.000 Error:Lookup 03/20/2019 02:17 PM 03/20/2019 02:22 PM 0.000 0.000 0.000 0.000 0.000 Not Reported Not Reported
03/22/2019 01:07 AM 29.12 28.94 28.76 44.96 28.04 98.0 Not Reported 3.13 W 2.01 SW 3.58 W No 0.000 Error:Lookup 03/20/2019 02:17 PM 03/20/2019 02:22 PM 0.000 0.000 0.000 0.000 0.000 Not Reported Not Reported
03/22/2019 01:12 AM 28.94 28.76 28.58 44.96 28.04 98.0 Not Reported 2.24 SW 2.46 W 4.25 SW No 0.000 Error:Lookup 03/20/2019 02:17 PM 03/20/2019 02:22 PM 0.000 0.000 0.000 0.000 0.000 Not Reported Not Reported
03/22/2019 01:17 AM 29.12 28.94 28.76 44.96 28.04 98.0 Not Reported 2.91 W 3.36 W 4.25 SW No 0.000 Error:Lookup 03/20/2019 02:17 PM 03/20/2019 02:22 PM 0.000 0.000 0.000 0.000 0.000 Not Reported Not Reported
03/22/2019 01:22 AM 28.76 28.76 28.58 44.96 28.04 98.0 Not Reported 3.13 W 3.36 W 4.70 SW No 0.000 Error:Lookup 03/20/2019 02:17 PM 03/20/2019 02:22 PM 0.000 0.000 0.000 0.000 0.000 Not Reported Not Reported
03/22/2019 01:27 AM 29.12 28.94 28.76 44.96 28.04 98.0 Not Reported 2.68 SW 1.79 W 4.70 SW No 0.000 Error:Lookup 03/20/2019 02:17 PM 03/20/2019 02:22 PM 0.000 0.000 0.000 0.000 0.000 Not Reported Not Reported
03/22/2019 01:32 AM 28.58 28.40 28.22 44.96 28.04 98.0 Not Reported 3.58 SW 3.80 S 4.03 SW No 0.000 Error:Lookup 03/20/2019 02:17 PM 03/20/2019 02:22 PM 0.000 0.000 0.000 0.000 0.000 Not Reported Not Reported
03/22/2019 01:37 AM 28.76 28.76 28.58 44.96 28.04 99.0 Not Reported 3.13 W 2.46 W 4.03 SW No 0.000 Error:Lookup 03/20/2019 02:17 PM 03/20/2019 02:22 PM 0.000 0.000 0.000 0.000 0.000 Not Reported Not Reported
03/22/2019 01:42 AM 28.94 28.94 28.76 44.96 28.04 99.0 Not Reported 2.68 W 3.13 W 3.80 S No 0.000 Error:Lookup 03/20/2019 02:17 PM 03/20/2019 02:22 PM 0.000 0.000 0.000 0.000 0.000 Not Reported Not Reported
03/22/2019 01:47 AM 28.94 28.76 28.58 44.96 28.04 99.0 Not Reported 2.24 NW 2.68 SW 3.80 S No 0.000 Error:Lookup 03/20/2019 02:17 PM 03/20/2019 02:22 PM 0.000 0.000 0.000 0.000 0.000 Not Reported Not Reported
03/22/2019 01:52 AM 28.76 28.76 28.58 44.96 28.04 99.0 Not Reported 2.68 W 2.68 W 4.03 SW No 0.000 Error:Lookup 03/20/2019 02:17 PM 03/20/2019 02:22 PM 0.000 0.000 0.000 0.000 0.000 Not Reported Not Reported
03/22/2019 01:57 AM 28.58 28.58 28.40 44.96 28.04 99.0 Not Reported 2.91 W 3.80 SW 4.03 SW No 0.000 Error:Lookup 03/20/2019 02:17 PM 03/20/2019 02:22 PM 0.000 0.000 0.000 0.000 0.000 Not Reported Not Reported
03/22/2019 02:02 AM 28.22 28.22 28.04 44.96 28.04 99.0 Not Reported 4.25 SW 4.25 W 4.03 W No 0.000 Error:Lookup 03/20/2019 02:17 PM 03/20/2019 02:22 PM 0.000 0.000 0.000 0.000 0.000 Not Reported Not Reported
03/22/2019 02:07 AM 28.40 28.40 28.22 44.96 28.04 99.0 Not Reported 3.13 W 2.46 W 4.03 W No 0.000 Error:Lookup 03/20/2019 02:17 PM 03/20/2019 02:22 PM 0.000 0.000 0.000 0.000 0.000 Not Reported Not Reported
03/22/2019 02:12 AM 28.40 28.40 28.22 44.96 28.04 99.0 Not Reported 2.91 W 3.13 W 4.70 SW No 0.000 Error:Lookup 03/20/2019 02:17 PM 03/20/2019 02:22 PM 0.000 0.000 0.000 0.000 0.000 Not Reported Not Reported
03/22/2019 02:17 AM 28.22 28.22 28.04 44.96 28.04 99.0 Not Reported 3.36 W 3.36 W 4.70 SW No 0.000 Error:Lookup 03/20/2019 02:17 PM 03/20/2019 02:22 PM 0.000 0.000 0.000 0.000 0.000 Not Reported Not Reported
03/22/2019 02:22 AM 28.40 28.22 28.22 44.96 28.04 99.0 Not Reported 2.91 W 3.80 SW 4.25 W No 0.000 Error:Lookup 03/20/2019 02:17 PM 03/20/2019 02:22 PM 0.000 0.000 0.000 0.000 0.000 Not Reported Not Reported
03/22/2019 02:27 AM 28.40 28.22 28.22 44.96 28.04 99.0 Not Reported 3.36 W 2.46 W 4.25 W No 0.000 Error:Lookup 03/20/2019 02:17 PM 03/20/2019 02:22 PM 0.000 0.000 0.000 0.000 0.000 Not Reported Not Reported
03/22/2019 02:32 AM 28.40 28.40 28.22 44.96 28.04 99.0 Not Reported 1.57 W 1.12 SW 4.03 W No 0.000 Error:Lookup 03/20/2019 02:17 PM 03/20/2019 02:22 PM 0.000 0.000 0.000 0.000 0.000 Not Reported Not Reported
03/22/2019 02:37 AM 28.40 28.40 28.22 44.96 28.04 99.0 Not Reported 1.34 NW 2.01 W 4.03 W No 0.000 Error:Lookup 03/20/2019 02:17 PM 03/20/2019 02:22 PM 0.000 0.000 0.000 0.000 0.000 Not Reported Not Reported
03/22/2019 02:42 AM 28.04 28.04 27.86 44.96 28.04 99.0 Not Reported 3.36 W 5.14 N 3.80 SW No 0.000 Error:Lookup 03/20/2019 02:17 PM 03/20/2019 02:22 PM 0.000 0.000 0.000 0.000 0.000 Not Reported Not Reported
03/22/2019 02:47 AM 28.04 28.04 27.86 44.96 27.86 99.0 Not Reported 2.01 W 3.58 SW 3.80 SW No 0.000 Error:Lookup 03/20/2019 02:17 PM 03/20/2019 02:22 PM 0.000 0.000 0.000 0.000 0.000 Not Reported Not Reported
03/22/2019 02:52 AM 27.86 27.68 27.68 44.96 27.68 99.0 Not Reported 2.91 W 1.79 W 5.14 N No 0.000 Error:Lookup 03/20/2019 02:17 PM 03/20/2019 02:22 PM 0.000 0.000 0.000 0.000 0.000 Not Reported Not Reported
03/22/2019 02:57 AM 27.86 27.86 27.68 44.96 27.68 99.0 Not Reported 2.68 W 3.58 SW 5.14 N No 0.000 Error:Lookup 03/20/2019 02:17 PM 03/20/2019 02:22 PM 0.000 0.000 0.000 0.000 0.000 Not Reported Not Reported
03/22/2019 03:02 AM 27.86 27.68 27.68 44.96 27.68 99.0 Not Reported 3.13 SW 3.58 SW 4.03 SW No 0.000 Error:Lookup 03/20/2019 02:17 PM 03/20/2019 02:22 PM 0.000 0.000 0.000 0.000 0.000 Not Reported Not Reported
03/22/2019 03:07 AM 27.68 27.68 27.50 44.96 27.68 99.0 Not Reported 2.01 W 3.13 W 4.03 SW No 0.000 Error:Lookup 03/20/2019 02:17 PM 03/20/2019 02:22 PM 0.000 0.000 0.000 0.000 0.000 Not Reported Not Reported
03/22/2019 03:12 AM 27.50 27.50 27.32 44.96 27.50 99.0 Not Reported 2.91 W 4.25 W 3.80 SW No 0.000 Error:Lookup 03/20/2019 02:17 PM 03/20/2019 02:22 PM 0.000 0.000 0.000 0.000 0.000 Not Reported Not Reported
03/22/2019 03:17 AM 27.68 27.50 27.32 44.96 27.50 99.0 Not Reported 1.57 W 1.34 W 3.80 SW No 0.000 Error:Lookup 03/20/2019 02:17 PM 03/20/2019 02:22 PM 0.000 0.000 0.000 0.000 0.000 Not Reported Not Reported
03/22/2019 03:22 AM 27.68 27.50 27.32 44.96 27.50 98.0 Not Reported 1.34 W 1.57 NW 4.25 W No 0.000 Error:Lookup 03/20/2019 02:17 PM 03/20/2019 02:22 PM 0.000 0.000 0.000 0.000 0.000 Not Reported Not Reported
03/22/2019 03:27 AM 27.68 27.68 27.50 44.96 27.50 98.0 Not Reported 2.46 W 2.01 W 4.25 W No 0.000 Error:Lookup 03/20/2019 02:17 PM 03/20/2019 02:22 PM 0.000 0.000 0.000 0.000 0.000 Not Reported Not Reported
03/22/2019 03:32 AM 27.32 27.32 26.96 44.96 27.32 98.0 Not Reported 1.79 W 1.79 SW 3.80 NW No 0.000 Error:Lookup 03/20/2019 02:17 PM 03/20/2019 02:22 PM 0.000 0.000 0.000 0.000 0.000 Not Reported Not Reported
03/22/2019 03:37 AM 27.68 27.68 27.32 44.96 27.32 98.0 Not Reported 2.46 W 1.57 W 3.80 NW No 0.000 Error:Lookup 03/20/2019 02:17 PM 03/20/2019 02:22 PM 0.000 0.000 0.000 0.000 0.000 Not Reported Not Reported
03/22/2019 03:42 AM 27.32 27.14 26.96 44.96 27.32 98.0 Not Reported 2.91 W 3.13 W 3.36 NW No 0.000 Error:Lookup 03/20/2019 02:17 PM 03/20/2019 02:22 PM 0.000 0.000 0.000 0.000 0.000 Not Reported Not Reported
03/22/2019 03:47 AM 27.32 27.14 26.96 44.96 27.14 98.0 Not Reported 2.68 W 3.36 SW 3.36 NW No 0.000 Error:Lookup 03/20/2019 02:17 PM 03/20/2019 02:22 PM 0.000 0.000 0.000 0.000 0.000 Not Reported Not Reported
03/22/2019 03:52 AM 27.14 26.96 26.78 44.96 27.14 98.0 Not Reported 2.68 SW 2.91 W 3.36 W No 0.000 Error:Lookup 03/20/2019 02:17 PM 03/20/2019 02:22 PM 0.000 0.000 0.000 0.000 0.000 Not Reported Not Reported
03/22/2019 03:57 AM 27.14 26.96 26.60 44.96 27.14 98.0 Not Reported 2.91 W 1.34 SW 3.36 W No 0.000 Error:Lookup 03/20/2019 02:17 PM 03/20/2019 02:22 PM 0.000 0.000 0.000 0.000 0.000 Not Reported Not Reported
03/22/2019 04:02 AM 27.14 26.96 26.60 44.96 26.78 98.0 Not Reported 2.24 W 1.57 N 4.25 SW No 0.000 Error:Lookup 03/20/2019 02:17 PM 03/20/2019 02:22 PM 0.000 0.000 0.000 0.000 0.000 Not Reported Not Reported
03/22/2019 04:07 AM 26.96 26.78 26.60 44.96 26.78 98.0 Not Reported 2.01 W 2.24 SW 4.25 SW No 0.000 Error:Lookup 03/20/2019 02:17 PM 03/20/2019 02:22 PM 0.000 0.000 0.000 0.000 0.000 Not Reported Not Reported
03/22/2019 04:12 AM 27.14 27.14 26.78 44.96 26.78 98.0 Not Reported 2.46 SW 3.58 W 3.36 W No 0.000 Error:Lookup 03/20/2019 02:17 PM 03/20/2019 02:22 PM 0.000 0.000 0.000 0.000 0.000 Not Reported Not Reported
03/22/2019 04:17 AM 26.96 26.78 26.60 44.96 26.78 98.0 Not Reported 1.57 W 2.01 S 3.36 W No 0.000 Error:Lookup 03/20/2019 02:17 PM 03/20/2019 02:22 PM 0.000 0.000 0.000 0.000 0.000 Not Reported Not Reported
03/22/2019 04:22 AM 27.14 27.14 26.78 44.96 26.78 98.0 Not Reported 1.79 W 1.79 W 4.25 W No 0.000 Error:Lookup 03/20/2019 02:17 PM 03/20/2019 02:22 PM 0.000 0.000 0.000 0.000 0.000 Not Reported Not Reported
03/22/2019 04:27 AM 27.32 27.14 26.96 44.96 26.78 98.0 Not Reported 2.24 W 0.67 W 4.25 W No 0.000 Error:Lookup 03/20/2019 02:17 PM 03/20/2019 02:22 PM 0.000 0.000 0.000 0.000 0.000 Not Reported Not Reported
03/22/2019 04:32 AM 27.14 26.96 26.78 44.96 26.78 98.0 Not Reported 1.79 W 1.12 W 3.58 SW No 0.000 Error:Lookup 03/20/2019 02:17 PM 03/20/2019 02:22 PM 0.000 0.000 0.000 0.000 0.000 Not Reported Not Reported
03/22/2019 04:37 AM 27.32 27.14 26.78 44.96 26.78 98.0 Not Reported 1.79 W 1.34 W 3.58 SW No 0.000 Error:Lookup 03/20/2019 02:17 PM 03/20/2019 02:22 PM 0.000 0.000 0.000 0.000 0.000 Not Reported Not Reported
03/22/2019 04:42 AM 26.96 26.78 26.42 44.96 26.78 97.0 Not Reported 1.79 W 1.79 W 3.13 SW No 0.000 Error:Lookup 03/20/2019 02:17 PM 03/20/2019 02:22 PM 0.000 0.000 0.000 0.000 0.000 Not Reported Not Reported
03/22/2019 04:47 AM 27.14 26.96 26.60 44.96 26.78 97.0 Not Reported 2.46 W 1.12 W 3.13 SW No 0.000 Error:Lookup 03/20/2019 02:17 PM 03/20/2019 02:22 PM 0.000 0.000 0.000 0.000 0.000 Not Reported Not Reported
03/22/2019 04:52 AM 26.96 26.78 26.42 44.96 26.78 97.0 Not Reported 1.57 W 1.12 W 2.91 W No 0.000 Error:Lookup 03/20/2019 02:17 PM 03/20/2019 02:22 PM 0.000 0.000 0.000 0.000 0.000 Not Reported Not Reported
03/22/2019 04:57 AM 27.14 26.96 26.60 44.96 26.78 97.0 Not Reported 1.34 NW 0.45 W 2.91 W No 0.000 Error:Lookup 03/20/2019 02:17 PM 03/20/2019 02:22 PM 0.000 0.000 0.000 0.000 0.000 Not Reported Not Reported
03/22/2019 05:02 AM 26.96 26.78 26.42 44.96 26.78 97.0 Not Reported 1.12 NW 0.89 W 2.46 NW No 0.000 Error:Lookup 03/20/2019 02:17 PM 03/20/2019 02:22 PM 0.000 0.000 0.000 0.000 0.000 Not Reported Not Reported
03/22/2019 05:07 AM 27.14 26.96 26.60 44.96 26.78 97.0 Not Reported 0.89 W 1.12 NW 2.46 NW No 0.000 Error:Lookup 03/20/2019 02:17 PM 03/20/2019 02:22 PM 0.000 0.000 0.000 0.000 0.000 Not Reported Not Reported
03/22/2019 05:12 AM 26.60 26.42 26.06 44.96 26.42 97.0 Not Reported 1.57 W 1.79 W 2.68 N No 0.000 Error:Lookup 03/20/2019 02:17 PM 03/20/2019 02:22 PM 0.000 0.000 0.000 0.000 0.000 Not Reported Not Reported
03/22/2019 05:17 AM 26.78 26.42 26.06 44.96 26.42 97.0 Not Reported 1.79 SW 0.67 W 2.68 N No 0.000 Error:Lookup 03/20/2019 02:17 PM 03/20/2019 02:22 PM 0.000 0.000 0.000 0.000 0.000 Not Reported Not Reported
03/22/2019 05:22 AM 26.60 26.42 25.88 44.96 26.42 97.0 Not Reported 0.89 NW 1.12 W 2.46 NW No 0.000 Error:Lookup 03/20/2019 02:17 PM 03/20/2019 02:22 PM 0.000 0.000 0.000 0.000 0.000 Not Reported Not Reported
03/22/2019 05:27 AM 27.14 26.96 26.42 44.96 26.42 97.0 Not Reported 0.89 W 0.22 SW 2.46 NW No 0.000 Error:Lookup 03/20/2019 02:17 PM 03/20/2019 02:22 PM 0.000 0.000 0.000 0.000 0.000 Not Reported Not Reported
03/22/2019 05:32 AM 26.96 26.60 26.24 44.96 26.42 97.0 Not Reported 1.57 W 1.12 SW 2.46 NW No 0.000 Error:Lookup 03/20/2019 02:17 PM 03/20/2019 02:22 PM 0.000 0.000 0.000 0.000 0.000 Not Reported Not Reported
03/22/2019 05:37 AM 26.96 26.60 26.24 44.96 26.42 97.0 Not Reported 1.12 W 1.57 W 2.46 NW No 0.000 Error:Lookup 03/20/2019 02:17 PM 03/20/2019 02:22 PM 0.000 0.000 0.000 0.000 0.000 Not Reported Not Reported
03/22/2019 05:42 AM 26.42 26.24 25.70 44.96 26.42 96.0 Not Reported 1.12 W 1.12 SW 2.91 NW No 0.000 Error:Lookup 03/20/2019 02:17 PM 03/20/2019 02:22 PM 0.000 0.000 0.000 0.000 0.000 Not Reported Not Reported
03/22/2019 05:47 AM 26.06 25.88 25.34 44.96 26.06 97.0 Not Reported 1.79 W 1.57 NW 2.91 NW No 0.000 Error:Lookup 03/20/2019 02:17 PM 03/20/2019 02:22 PM 0.000 0.000 0.000 0.000 0.000 Not Reported Not Reported
03/22/2019 05:52 AM 26.24 26.06 25.52 44.96 26.06 97.0 Not Reported 2.24 W 1.79 SW 2.68 W No 0.000 Error:Lookup 03/20/2019 02:17 PM 03/20/2019 02:22 PM 0.000 0.000 0.000 0.000 0.000 Not Reported Not Reported
03/22/2019 05:57 AM 26.60 26.42 26.06 44.96 26.06 97.0 Not Reported 2.68 W 1.12 SW 2.68 W No 0.000 Error:Lookup 03/20/2019 02:17 PM 03/20/2019 02:22 PM 0.000 0.000 0.000 0.000 0.000 Not Reported Not Reported
03/22/2019 06:02 AM 26.60 26.42 25.88 44.96 26.06 97.0 Not Reported 1.57 W 1.57 W 3.36 W No 0.000 Error:Lookup 03/20/2019 02:17 PM 03/20/2019 02:22 PM 0.000 0.000 0.000 0.000 0.000 Not Reported Not Reported
03/22/2019 06:07 AM 26.78 26.42 26.06 44.96 26.06 97.0 Not Reported 1.34 W 1.12 W 3.36 W No 0.000 Error:Lookup 03/20/2019 02:17 PM 03/20/2019 02:22 PM 0.000 0.000 0.000 0.000 0.000 Not Reported Not Reported
03/22/2019 06:12 AM 27.14 26.96 26.60 44.96 26.06 97.0 Not Reported 1.34 NW 1.57 NW 3.58 NW No 0.000 Error:Lookup 03/20/2019 02:17 PM 03/20/2019 02:22 PM 0.000 0.000 0.000 0.000 0.000 Not Reported Not Reported
03/22/2019 06:17 AM 27.50 27.14 26.60 44.96 26.06 96.0 Not Reported 2.24 NW 1.79 NW 3.58 NW No 0.000 Error:Lookup 03/20/2019 02:17 PM 03/20/2019 02:22 PM 0.000 0.000 0.000 0.000 0.000 Not Reported Not Reported
03/22/2019 06:22 AM 27.32 26.96 26.42 44.96 26.06 96.0 Not Reported 1.57 W 1.34 S 3.36 NW No 0.000 Error:Lookup 03/20/2019 02:17 PM 03/20/2019 02:22 PM 0.000 0.000 0.000 0.000 0.000 Not Reported Not Reported
03/22/2019 06:27 AM 27.32 26.96 26.42 44.96 26.06 96.0 Not Reported 2.46 W 0.89 NW 3.36 NW No 0.000 Error:Lookup 03/20/2019 02:17 PM 03/20/2019 02:22 PM 0.000 0.000 0.000 0.000 0.000 Not Reported Not Reported
03/22/2019 06:32 AM 26.96 26.60 26.06 44.96 26.06 96.0 Not Reported 1.34 SW 1.34 S 3.36 W No 0.000 Error:Lookup 03/20/2019 02:17 PM 03/20/2019 02:22 PM 0.000 0.000 0.000 0.000 0.000 Not Reported Not Reported
03/22/2019 06:37 AM 26.78 26.60 26.06 44.96 26.06 96.0 Not Reported 2.91 SW 4.03 SW 3.36 W No 0.000 Error:Lookup 03/20/2019 02:17 PM 03/20/2019 02:22 PM 0.000 0.000 0.000 0.000 0.000 Not Reported Not Reported
03/22/2019 06:42 AM 26.78 26.42 25.88 44.96 26.06 96.0 Not Reported 2.24 SW 1.79 W 4.47 SW No 0.000 Error:Lookup 03/20/2019 02:17 PM 03/20/2019 02:22 PM 0.000 0.000 0.000 0.000 0.000 Not Reported Not Reported
03/22/2019 06:47 AM 26.96 26.78 26.24 44.96 26.06 96.0 Not Reported 2.91 SW 1.34 W 4.47 SW No 0.000 Error:Lookup 03/20/2019 02:17 PM 03/20/2019 02:22 PM 0.000 0.000 0.000 0.000 0.000 Not Reported Not Reported
03/22/2019 06:52 AM 27.14 26.78 26.42 44.96 26.06 96.0 Not Reported 1.57 W 2.01 W 4.03 SW No 0.000 Error:Lookup 03/20/2019 02:17 PM 03/20/2019 02:22 PM 0.000 0.000 0.000 0.000 0.000 Not Reported Not Reported
03/22/2019 06:57 AM 27.14 26.78 26.24 44.96 26.06 96.0 Not Reported 2.46 W 1.12 NW 4.03 SW No 0.000 Error:Lookup 03/20/2019 02:17 PM 03/20/2019 02:22 PM 0.000 0.000 0.000 0.000 0.000 Not Reported Not Reported
03/22/2019 07:02 AM 27.32 27.14 26.60 44.96 26.06 96.0 Not Reported 1.79 W 1.57 W 4.25 W No 0.000 Error:Lookup 03/20/2019 02:17 PM 03/20/2019 02:22 PM 0.000 0.000 0.000 0.000 0.000 Not Reported Not Reported
03/22/2019 07:07 AM 27.32 27.14 26.60 44.96 26.06 96.0 Not Reported 1.79 W 1.34 W 4.25 W No 0.000 Error:Lookup 03/20/2019 02:17 PM 03/20/2019 02:22 PM 0.000 0.000 0.000 0.000 0.000 Not Reported Not Reported
03/22/2019 07:12 AM 27.68 27.32 26.78 44.96 26.06 96.0 Not Reported 1.34 W 1.57 NW 2.91 W No 0.000 Error:Lookup 03/20/2019 02:17 PM 03/20/2019 02:22 PM 0.000 0.000 0.000 0.000 0.000 Not Reported Not Reported
03/22/2019 07:17 AM 27.68 27.32 26.78 44.96 26.06 96.0 Not Reported 1.57 W 1.34 SW 2.91 W No 0.000 Error:Lookup 03/20/2019 02:17 PM 03/20/2019 02:22 PM 0.000 0.000 0.000 0.000 0.000 Not Reported Not Reported
03/22/2019 07:22 AM 27.68 27.32 26.78 44.96 26.06 96.0 Not Reported 1.34 W 1.79 W 2.68 SW No 0.000 Error:Lookup 03/20/2019 02:17 PM 03/20/2019 02:22 PM 0.000 0.000 0.000 0.000 0.000 Not Reported Not Reported
03/22/2019 07:27 AM 27.86 27.50 26.78 44.96 26.06 96.0 Not Reported 2.01 W 1.57 W 2.68 SW No 0.000 Error:Lookup 03/20/2019 02:17 PM 03/20/2019 02:22 PM 0.000 0.000 0.000 0.000 0.000 Not Reported Not Reported
03/22/2019 07:32 AM 27.86 27.50 26.96 44.96 26.06 96.0 Not Reported 0.22 W 0.00 S 2.46 W No 0.000 Error:Lookup 03/20/2019 02:17 PM 03/20/2019 02:22 PM 0.000 0.000 0.000 0.000 0.000 Not Reported Not Reported
03/22/2019 07:37 AM 27.86 27.50 26.96 44.96 26.06 96.0 Not Reported 2.24 NW 2.01 S 2.46 W No 0.000 Error:Lookup 03/20/2019 02:17 PM 03/20/2019 02:22 PM 0.000 0.000 0.000 0.000 0.000 Not Reported Not Reported
03/22/2019 07:42 AM 27.86 27.50 26.78 44.96 26.06 95.0 Not Reported 1.34 SW 0.67 SW 2.68 W No 0.000 Error:Lookup 03/20/2019 02:17 PM 03/20/2019 02:22 PM 0.000 0.000 0.000 0.000 0.000 Not Reported Not Reported
03/22/2019 07:47 AM 27.86 27.32 26.78 44.96 26.06 95.0 Not Reported 1.79 W 2.24 SW 2.68 W No 0.000 Error:Lookup 03/20/2019 02:17 PM 03/20/2019 02:22 PM 0.000 0.000 0.000 0.000 0.000 Not Reported Not Reported
03/22/2019 07:52 AM 27.68 27.32 26.60 44.96 26.06 96.0 Not Reported 1.12 W 1.12 W 5.14 NW No 0.000 Error:Lookup 03/20/2019 02:17 PM 03/20/2019 02:22 PM 0.000 0.000 0.000 0.000 0.000 Not Reported Not Reported
03/22/2019 07:57 AM 27.50 27.14 26.60 44.96 26.06 96.0 Not Reported 1.79 W 1.79 SW 5.14 NW No 0.000 Error:Lookup 03/20/2019 02:17 PM 03/20/2019 02:22 PM 0.000 0.000 0.000 0.000 0.000 Not Reported Not Reported
03/22/2019 08:02 AM 27.68 27.32 26.78 44.96 26.06 96.0 Not Reported 0.67 W 0.45 W 2.91 SW No 0.000 Error:Lookup 03/20/2019 02:17 PM 03/20/2019 02:22 PM 0.000 0.000 0.000 0.000 0.000 Not Reported Not Reported
03/22/2019 08:07 AM 27.68 27.32 26.78 44.96 26.06 96.0 Not Reported 1.57 W 2.46 W 2.91 SW No 0.000 Error:Lookup 03/20/2019 02:17 PM 03/20/2019 02:22 PM 0.000 0.000 0.000 0.000 0.000 Not Reported Not Reported
03/22/2019 08:12 AM 28.04 27.68 27.14 44.96 26.06 95.0 Not Reported 2.24 SW 2.01 SW 2.46 W No 0.000 Error:Lookup 03/20/2019 02:17 PM 03/20/2019 02:22 PM 0.000 0.000 0.000 0.000 0.000 Not Reported Not Reported
03/22/2019 08:17 AM 28.04 27.50 26.96 44.96 26.06 95.0 Not Reported 1.12 SW 1.34 S 2.46 W No 0.000 Error:Lookup 03/20/2019 02:17 PM 03/20/2019 02:22 PM 0.000 0.000 0.000 0.000 0.000 Not Reported Not Reported
03/22/2019 08:22 AM 28.40 27.86 27.32 44.96 26.06 95.0 Not Reported 0.45 W 0.89 SW 2.68 W No 0.000 Error:Lookup 03/20/2019 02:17 PM 03/20/2019 02:22 PM 0.000 0.000 0.000 0.000 0.000 Not Reported Not Reported
03/22/2019 08:27 AM 28.40 28.04 27.14 44.96 26.06 95.0 Not Reported 0.89 SW 0.89 SW 2.68 W No 0.000 Error:Lookup 03/20/2019 02:17 PM 03/20/2019 02:22 PM 0.000 0.000 0.000 0.000 0.000 Not Reported Not Reported
03/22/2019 08:32 AM 28.58 28.04 27.32 44.96 26.06 94.0 Not Reported 1.57 W 1.12 W 2.01 NW No 0.000 Error:Lookup 03/20/2019 02:17 PM 03/20/2019 02:22 PM 0.000 0.000 0.000 0.000 0.000 Not Reported Not Reported
03/22/2019 08:37 AM 28.58 28.04 27.14 44.96 26.06 94.0 Not Reported 1.34 SW 2.46 SW 2.01 NW No 0.000 Error:Lookup 03/20/2019 02:17 PM 03/20/2019 02:22 PM 0.000 0.000 0.000 0.000 0.000 Not Reported Not Reported
03/22/2019 08:42 AM 28.40 28.04 27.32 44.96 26.06 95.0 Not Reported 1.12 W 0.89 NW 2.91 SW No 0.000 Error:Lookup 03/20/2019 02:17 PM 03/20/2019 02:22 PM 0.000 0.000 0.000 0.000 0.000 Not Reported Not Reported
03/22/2019 08:47 AM 28.76 28.22 27.50 44.96 26.06 94.0 Not Reported 1.57 W 0.22 W 2.91 SW No 0.000 Error:Lookup 03/20/2019 02:17 PM 03/20/2019 02:22 PM 0.000 0.000 0.000 0.000 0.000 Not Reported Not Reported
03/22/2019 08:52 AM 29.12 28.58 27.68 44.96 26.06 94.0 Not Reported 1.57 W 0.45 W 2.46 W No 0.000 Error:Lookup 03/20/2019 02:17 PM 03/20/2019 02:22 PM 0.000 0.000 0.000 0.000 0.000 Not Reported Not Reported
03/22/2019 08:57 AM 29.12 28.40 27.50 44.96 26.06 93.0 Not Reported 1.57 W 1.79 SW 2.46 W No 0.000 Error:Lookup 03/20/2019 02:17 PM 03/20/2019 02:22 PM 0.000 0.000 0.000 0.000 0.000 Not Reported Not Reported
03/22/2019 09:02 AM 28.76 28.22 27.50 44.96 26.06 94.0 Not Reported 2.68 W 3.36 W 4.03 SW No 0.000 Error:Lookup 03/20/2019 02:17 PM 03/20/2019 02:22 PM 0.000 0.000 0.000 0.000 0.000 Not Reported Not Reported
03/22/2019 09:07 AM 28.94 28.40 27.50 44.96 26.06 94.0 Not Reported 2.01 W 3.13 NW 4.03 SW No 0.000 Error:Lookup 03/20/2019 02:17 PM 03/20/2019 02:22 PM 0.000 0.000 0.000 0.000 0.000 Not Reported Not Reported
03/22/2019 09:12 AM 28.94 28.40 27.50 44.96 26.06 94.0 Not Reported 3.13 W 3.13 SW 3.36 W No 0.000 Error:Lookup 03/20/2019 02:17 PM 03/20/2019 02:22 PM 0.000 0.000 0.000 0.000 0.000 Not Reported Not Reported
03/22/2019 09:17 AM 29.12 28.58 27.50 44.96 26.06 94.0 Not Reported 2.68 W 3.80 W 3.36 W No 0.000 Error:Lookup 03/20/2019 02:17 PM 03/20/2019 02:22 PM 0.000 0.000 0.000 0.000 0.000 Not Reported Not Reported
03/22/2019 09:22 AM 29.12 28.58 27.68 44.96 26.06 94.0 Not Reported 2.91 W 2.46 W 5.59 W No 0.000 Error:Lookup 03/20/2019 02:17 PM 03/20/2019 02:22 PM 0.000 0.000 0.000 0.000 0.000 Not Reported Not Reported
03/22/2019 09:27 AM 28.94 28.40 27.50 44.96 26.06 94.0 Not Reported 3.36 W 2.46 SW 5.59 W No 0.000 Error:Lookup 03/20/2019 02:17 PM 03/20/2019 02:22 PM 0.000 0.000 0.000 0.000 0.000 Not Reported Not Reported
03/22/2019 09:32 AM 29.66 28.94 27.86 44.96 26.06 93.0 Not Reported 2.46 W 2.01 SW 3.58 SW No 0.000 Error:Lookup 03/20/2019 02:17 PM 03/20/2019 02:22 PM 0.000 0.000 0.000 0.000 0.000 Not Reported Not Reported
03/22/2019 09:37 AM 29.66 28.94 28.04 44.96 26.06 93.0 Not Reported 2.24 SW 2.91 SW 3.58 SW No 0.000 Error:Lookup 03/20/2019 02:17 PM 03/20/2019 02:22 PM 0.000 0.000 0.000 0.000 0.000 Not Reported Not Reported
03/22/2019 09:42 AM 30.02 29.30 28.22 44.96 26.06 92.0 Not Reported 3.58 SW 4.25 SW 4.25 SW No 0.000 Error:Lookup 03/20/2019 02:17 PM 03/20/2019 02:22 PM 0.000 0.000 0.000 0.000 0.000 Not Reported Not Reported
03/22/2019 09:47 AM 30.02 29.48 28.40 44.96 26.06 93.0 Not Reported 5.37 SW 2.46 SW 4.25 SW No 0.000 Error:Lookup 03/20/2019 02:17 PM 03/20/2019 02:22 PM 0.000 0.000 0.000 0.000 0.000 Not Reported Not Reported
03/22/2019 09:52 AM 30.38 29.66 28.58 44.96 26.06 92.0 Not Reported 4.47 SW 4.70 W 6.04 W No 0.000 Error:Lookup 03/20/2019 02:17 PM 03/20/2019 02:22 PM 0.000 0.000 0.000 0.000 0.000 Not Reported Not Reported
03/22/2019 09:57 AM 31.10 30.38 28.94 44.96 26.06 91.0 Not Reported 4.25 SW 1.79 SW 6.04 W No 0.000 Error:Lookup 03/20/2019 02:17 PM 03/20/2019 02:22 PM 0.000 0.000 0.000 0.000 0.000 Not Reported Not Reported
03/22/2019 10:02 AM 31.28 30.38 29.12 44.96 26.06 91.0 Not Reported 3.13 SW 3.58 W 5.59 SW No 0.000 Error:Lookup 03/20/2019 02:17 PM 03/20/2019 02:22 PM 0.000 0.000 0.000 0.000 0.000 Not Reported Not Reported
03/22/2019 10:07 AM 31.82 30.74 29.12 44.96 26.06 89.0 Not Reported 2.46 W 0.45 NE 5.59 SW No 0.000 Error:Lookup 03/20/2019 02:17 PM 03/20/2019 02:22 PM 0.000 0.000 0.000 0.000 0.000 Not Reported Not Reported
03/22/2019 10:12 AM 31.46 30.56 28.94 44.96 26.06 90.0 Not Reported 1.57 W 2.01 NW 4.47 W No 0.000 Error:Lookup 03/20/2019 02:17 PM 03/20/2019 02:22 PM 0.000 0.000 0.000 0.000 0.000 Not Reported Not Reported
03/22/2019 10:17 AM 31.82 30.56 28.58 44.96 26.06 88.0 Not Reported 1.57 S 2.91 SW 4.47 W No 0.000 Error:Lookup 03/20/2019 02:17 PM 03/20/2019 02:22 PM 0.000 0.000 0.000 0.000 0.000 Not Reported Not Reported
03/22/2019 10:22 AM 32.00 30.74 28.40 44.96 26.06 85.0 Not Reported 1.79 W 1.12 NW 4.92 W No 0.000 Error:Lookup 03/20/2019 02:17 PM 03/20/2019 02:22 PM 0.000 0.000 0.000 0.000 0.000 Not Reported Not Reported
03/22/2019 10:27 AM 32.18 30.74 28.04 44.96 26.06 84.0 Not Reported 2.46 W 4.92 SW 4.92 W No 0.000 Error:Lookup 03/20/2019 02:17 PM 03/20/2019 02:22 PM 0.000 0.000 0.000 0.000 0.000 Not Reported Not Reported
03/22/2019 10:32 AM 32.72 31.10 28.04 44.96 26.06 81.0 Not Reported 3.80 SW 2.24 SW 4.92 SW No 0.000 Error:Lookup 03/20/2019 02:17 PM 03/20/2019 02:22 PM 0.000 0.000 0.000 0.000 0.000 Not Reported Not Reported
03/22/2019 10:37 AM 33.08 31.28 27.86 44.96 26.06 79.0 Not Reported 2.24 SW 3.13 SW 4.92 SW No 0.000 Error:Lookup 03/20/2019 02:17 PM 03/20/2019 02:22 PM 0.000 0.000 0.000 0.000 0.000 Not Reported Not Reported
03/22/2019 10:42 AM 33.08 31.28 27.86 44.96 26.06 80.0 Not Reported 2.68 W 1.79 SW 6.49 W No 0.000 Error:Lookup 03/20/2019 02:17 PM 03/20/2019 02:22 PM 0.000 0.000 0.000 0.000 0.000 Not Reported Not Reported
03/22/2019 10:47 AM 33.26 31.10 26.96 44.96 26.06 76.0 Not Reported 5.14 SW 6.71 S 6.49 W No 0.000 Error:Lookup 03/20/2019 02:17 PM 03/20/2019 02:22 PM 0.000 0.000 0.000 0.000 0.000 Not Reported Not Reported
03/22/2019 10:52 AM 33.44 31.10 26.96 44.96 26.06 75.0 Not Reported 4.47 W 3.36 NW 7.61 SW No 0.000 Error:Lookup 03/20/2019 02:17 PM 03/20/2019 02:22 PM 0.000 0.000 0.000 0.000 0.000 Not Reported Not Reported
03/22/2019 10:57 AM 33.62 31.10 26.78 44.96 26.06 74.0 Not Reported 4.70 W 2.68 W 7.61 SW No 0.000 Error:Lookup 03/20/2019 02:17 PM 03/20/2019 02:22 PM 0.000 0.000 0.000 0.000 0.000 Not Reported Not Reported
03/22/2019 11:02 AM 33.98 31.28 26.42 44.96 26.06 73.0 Not Reported 4.70 W 5.59 SW 6.04 SW No 0.000 Error:Lookup 03/20/2019 02:17 PM 03/20/2019 02:22 PM 0.000 0.000 0.000 0.000 0.000 Not Reported Not Reported
03/22/2019 11:07 AM 33.80 31.28 26.96 44.96 26.06 75.0 Not Reported 4.47 SW 6.04 W 6.04 SW No 0.000 Error:Lookup 03/20/2019 02:17 PM 03/20/2019 02:22 PM 0.000 0.000 0.000 0.000 0.000 Not Reported Not Reported
03/22/2019 11:12 AM 34.34 31.82 27.14 44.96 26.06 74.0 Not Reported 3.58 SW 3.13 W 7.38 W No 0.000 Error:Lookup 03/20/2019 02:17 PM 03/20/2019 02:22 PM 0.000 0.000 0.000 0.000 0.000 Not Reported Not Reported
03/22/2019 11:17 AM 34.34 31.82 27.32 44.96 26.06 74.0 Not Reported 5.59 SW 6.26 NW 7.38 W No 0.000 Error:Lookup 03/20/2019 02:17 PM 03/20/2019 02:22 PM 0.000 0.000 0.000 0.000 0.000 Not Reported Not Reported
03/22/2019 11:22 AM 34.52 32.00 27.50 44.96 26.06 74.0 Not Reported 3.58 W 5.14 W 6.93 W No 0.000 Error:Lookup 03/20/2019 02:17 PM 03/20/2019 02:22 PM 0.000 0.000 0.000 0.000 0.000 Not Reported Not Reported
03/22/2019 11:27 AM 34.34 31.82 27.32 44.96 26.06 74.0 Not Reported 4.92 W 5.82 W 6.93 W No 0.000 Error:Lookup 03/20/2019 02:17 PM 03/20/2019 02:22 PM 0.000 0.000 0.000 0.000 0.000 Not Reported Not Reported
03/22/2019 11:32 AM 34.70 32.00 27.14 44.96 26.06 73.0 Not Reported 4.03 W 3.80 W 7.38 SW No 0.000 Error:Lookup 03/20/2019 02:17 PM 03/20/2019 02:22 PM 0.000 0.000 0.000 0.000 0.000 Not Reported Not Reported
03/22/2019 11:37 AM 34.34 31.82 26.96 44.96 26.06 73.0 Not Reported 5.59 W 8.05 SW 7.38 SW No 0.000 Error:Lookup 03/20/2019 02:17 PM 03/20/2019 02:22 PM 0.000 0.000 0.000 0.000 0.000 Not Reported Not Reported
03/22/2019 11:42 AM 34.52 31.64 26.78 44.96 26.06 72.0 Not Reported 5.14 SW 5.37 SW 8.05 SW No 0.000 Error:Lookup 03/20/2019 02:17 PM 03/20/2019 02:22 PM 0.000 0.000 0.000 0.000 0.000 Not Reported Not Reported
03/22/2019 11:47 AM 35.06 32.00 27.32 44.96 26.06 72.0 Not Reported 3.13 W 4.25 W 8.05 SW No 0.000 Error:Lookup 03/20/2019 02:17 PM 03/20/2019 02:22 PM 0.000 0.000 0.000 0.000 0.000 Not Reported Not Reported
03/22/2019 11:52 AM 35.24 32.00 26.60 44.96 26.06 69.0 Not Reported 4.92 W 6.49 W 6.04 W No 0.000 Error:Lookup 03/20/2019 02:17 PM 03/20/2019 02:22 PM 0.000 0.000 0.000 0.000 0.000 Not Reported Not Reported
03/22/2019 11:57 AM 35.60 32.36 27.32 44.96 26.06 70.0 Not Reported 3.58 SW 4.25 W 6.04 W No 0.000 Error:Lookup 03/20/2019 02:17 PM 03/20/2019 02:22 PM 0.000 0.000 0.000 0.000 0.000 Not Reported Not Reported
03/22/2019 12:02 PM 35.60 32.36 27.32 44.96 26.06 70.0 Not Reported 3.58 W 3.36 W 6.49 W No 0.000 Error:Lookup 03/20/2019 02:17 PM 03/20/2019 02:22 PM 0.000 0.000 0.000 0.000 0.000 Not Reported Not Reported
03/22/2019 12:07 PM 35.78 32.54 27.50 44.96 26.06 70.0 Not Reported 3.13 W 3.58 SW 6.49 W No 0.000 Error:Lookup 03/20/2019 02:17 PM 03/20/2019 02:22 PM 0.000 0.000 0.000 0.000 0.000 Not Reported Not Reported
03/22/2019 12:12 PM 35.78 32.36 27.14 44.96 26.06 70.0 Not Reported 4.92 SW 5.37 SW 4.70 W No 0.000 Error:Lookup 03/20/2019 02:17 PM 03/20/2019 02:22 PM 0.000 0.000 0.000 0.000 0.000 Not Reported Not Reported
03/22/2019 12:17 PM 35.42 32.00 26.78 44.96 26.06 70.0 Not Reported 4.70 SW 3.13 W 4.70 W No 0.000 Error:Lookup 03/20/2019 02:17 PM 03/20/2019 02:22 PM 0.000 0.000 0.000 0.000 0.000 Not Reported Not Reported
03/22/2019 12:22 PM 35.06 32.00 26.60 44.96 26.06 70.0 Not Reported 6.04 W 4.92 W 8.05 NW No 0.000 Error:Lookup 03/20/2019 02:17 PM 03/20/2019 02:22 PM 0.000 0.000 0.000 0.000 0.000 Not Reported Not Reported
03/22/2019 12:27 PM 35.06 32.00 26.78 44.96 26.06 70.0 Not Reported 4.70 W 5.14 W 8.05 NW No 0.000 Error:Lookup 03/20/2019 02:17 PM 03/20/2019 02:22 PM 0.000 0.000 0.000 0.000 0.000 Not Reported Not Reported
03/22/2019 12:32 PM 34.88 31.64 26.24 44.96 26.06 69.0 Not Reported 5.37 W 3.58 SW 8.95 W No 0.000 Error:Lookup 03/20/2019 02:17 PM 03/20/2019 02:22 PM 0.000 0.000 0.000 0.000 0.000 Not Reported Not Reported
03/22/2019 12:37 PM 35.06 31.82 26.42 44.96 26.06 70.0 Not Reported 4.92 SW 4.47 W 8.95 W No 0.000 Error:Lookup 03/20/2019 02:17 PM 03/20/2019 02:22 PM 0.000 0.000 0.000 0.000 0.000 Not Reported Not Reported
03/22/2019 12:42 PM 35.42 32.00 26.78 44.96 26.06 70.0 Not Reported 4.70 SW 2.68 W 7.83 SW No 0.000 Error:Lookup 03/20/2019 02:17 PM 03/20/2019 02:22 PM 0.000 0.000 0.000 0.000 0.000 Not Reported Not Reported
03/22/2019 12:47 PM 35.96 32.54 27.14 44.96 26.06 69.0 Not Reported 3.80 W 3.13 SW 7.83 SW No 0.000 Error:Lookup 03/20/2019 02:17 PM 03/20/2019 02:22 PM 0.000 0.000 0.000 0.000 0.000 Not Reported Not Reported
03/22/2019 12:52 PM 36.14 32.54 26.78 44.96 26.06 67.0 Not Reported 4.03 SW 6.49 SW 6.26 SW No 0.000 Error:Lookup 03/20/2019 02:17 PM 03/20/2019 02:22 PM 0.000 0.000 0.000 0.000 0.000 Not Reported Not Reported
03/22/2019 12:57 PM 36.14 32.54 26.96 44.96 26.06 68.0 Not Reported 2.68 SW 4.92 SW 6.26 SW No 0.000 Error:Lookup 03/20/2019 02:17 PM 03/20/2019 02:22 PM 0.000 0.000 0.000 0.000 0.000 Not Reported Not Reported
03/22/2019 01:02 PM 35.96 32.36 26.78 44.96 26.06 68.0 Not Reported 4.92 SW 2.46 SW 6.49 SW No 0.000 Error:Lookup 03/20/2019 02:17 PM 03/20/2019 02:22 PM 0.000 0.000 0.000 0.000 0.000 Not Reported Not Reported
03/22/2019 01:07 PM 36.14 32.54 26.96 44.96 26.06 68.0 Not Reported 4.92 SW 4.03 SW 6.49 SW No 0.000 Error:Lookup 03/20/2019 02:17 PM 03/20/2019 02:22 PM 0.000 0.000 0.000 0.000 0.000 Not Reported Not Reported
03/22/2019 01:12 PM 36.14 32.72 26.96 44.96 26.06 68.0 Not Reported 5.14 SW 6.93 W 8.72 SW No 0.000 Error:Lookup 03/20/2019 02:17 PM 03/20/2019 02:22 PM 0.000 0.000 0.000 0.000 0.000 Not Reported Not Reported
03/22/2019 01:17 PM 35.42 32.18 26.96 44.96 26.06 70.0 Not Reported 3.58 W 3.58 NW 8.72 SW No 0.000 Error:Lookup 03/20/2019 02:17 PM 03/20/2019 02:22 PM 0.000 0.000 0.000 0.000 0.000 Not Reported Not Reported
03/22/2019 01:22 PM 35.42 32.36 27.50 44.96 26.06 72.0 Not Reported 5.14 SW 6.26 S 7.16 SW No 0.000 Error:Lookup 03/20/2019 02:17 PM 03/20/2019 02:22 PM 0.000 0.000 0.000 0.000 0.000 Not Reported Not Reported
03/22/2019 01:27 PM 35.06 32.18 27.68 44.96 26.06 73.0 Not Reported 4.70 SW 6.71 W 7.16 SW No 0.000 Error:Lookup 03/20/2019 02:17 PM 03/20/2019 02:22 PM 0.000 0.000 0.000 0.000 0.000 Not Reported Not Reported
03/22/2019 01:32 PM 35.24 32.18 27.32 44.96 26.06 72.0 Not Reported 4.47 SW 4.25 SW 7.61 NW No 0.000 Error:Lookup 03/20/2019 02:17 PM 03/20/2019 02:22 PM 0.000 0.000 0.000 0.000 0.000 Not Reported Not Reported
03/22/2019 01:37 PM 36.14 32.90 28.22 44.96 26.06 72.0 Not Reported 3.58 W 4.03 SW 7.61 NW No 0.000 Error:Lookup 03/20/2019 02:17 PM 03/20/2019 02:22 PM 0.000 0.000 0.000 0.000 0.000 Not Reported Not Reported
03/22/2019 01:42 PM 35.78 32.54 27.32 44.96 26.06 70.0 Not Reported 5.37 SW 5.14 SW 6.71 SW No 0.000 Error:Lookup 03/20/2019 02:17 PM 03/20/2019 02:22 PM 0.000 0.000 0.000 0.000 0.000 Not Reported Not Reported
03/22/2019 01:47 PM 35.78 32.72 27.86 44.96 26.06 72.0 Not Reported 5.14 W 4.25 W 6.71 SW No 0.000 Error:Lookup 03/20/2019 02:17 PM 03/20/2019 02:22 PM 0.000 0.000 0.000 0.000 0.000 Not Reported Not Reported
03/22/2019 01:52 PM 35.96 32.90 28.22 44.96 26.06 72.0 Not Reported 4.70 W 2.91 W 6.71 SW No 0.000 Error:Lookup 03/20/2019 02:17 PM 03/20/2019 02:22 PM 0.000 0.000 0.000 0.000 0.000 Not Reported Not Reported
03/22/2019 01:57 PM 35.96 32.90 28.22 44.96 26.06 72.0 Not Reported 4.03 SW 4.25 W 6.71 SW No 0.000 Error:Lookup 03/20/2019 02:17 PM 03/20/2019 02:22 PM 0.000 0.000 0.000 0.000 0.000 Not Reported Not Reported
03/22/2019 02:02 PM 35.96 33.08 28.76 44.96 26.06 74.0 Not Reported 4.25 SW 5.14 W 7.38 W No 0.000 Error:Lookup 03/20/2019 02:17 PM 03/20/2019 02:22 PM 0.000 0.000 0.000 0.000 0.000 Not Reported Not Reported
03/22/2019 02:07 PM 35.78 33.08 28.94 44.96 26.06 75.0 Not Reported 4.25 SW 4.03 W 7.38 W No 0.000 Error:Lookup 03/20/2019 02:17 PM 03/20/2019 02:22 PM 0.000 0.000 0.000 0.000 0.000 Not Reported Not Reported
03/22/2019 02:12 PM 35.78 33.08 29.12 44.96 26.06 76.0 Not Reported 3.58 SW 1.57 SW 5.14 W No 0.000 Error:Lookup 03/20/2019 02:17 PM 03/20/2019 02:22 PM 0.000 0.000 0.000 0.000 0.000 Not Reported Not Reported
03/22/2019 02:17 PM 35.06 32.72 29.12 44.96 26.06 78.0 Not Reported 3.80 W 2.91 W 5.14 W No 0.000 Error:Lookup 03/20/2019 02:17 PM 03/20/2019 02:22 PM 0.000 0.000 0.000 0.000 0.000 Not Reported Not Reported
03/22/2019 02:22 PM 34.88 32.72 29.30 44.96 26.06 78.0 Not Reported 3.80 W 4.25 SW 5.59 W No 0.000 Error:Lookup 03/20/2019 02:17 PM 03/20/2019 02:22 PM 0.000 0.000 0.000 0.000 0.000 Not Reported Not Reported
03/22/2019 02:27 PM 35.42 32.90 29.12 44.96 26.06 77.0 Not Reported 2.24 SW 2.68 N 5.59 W No 0.000 Error:Lookup 03/20/2019 02:17 PM 03/20/2019 02:22 PM 0.000 0.000 0.000 0.000 0.000 Not Reported Not Reported
03/22/2019 02:32 PM 35.78 33.08 29.12 44.96 26.06 76.0 Not Reported 2.68 NW 3.13 W 4.92 SW No 0.000 Error:Lookup 03/20/2019 02:17 PM 03/20/2019 02:22 PM 0.000 0.000 0.000 0.000 0.000 Not Reported Not Reported
03/22/2019 02:37 PM 36.14 33.26 28.94 44.96 26.06 74.0 Not Reported 3.80 W 2.46 SW 4.92 SW No 0.000 Error:Lookup 03/20/2019 02:17 PM 03/20/2019 02:22 PM 0.000 0.000 0.000 0.000 0.000 Not Reported Not Reported
03/22/2019 02:42 PM 36.14 32.90 28.04 44.96 26.06 71.0 Not Reported 4.03 SW 3.36 SW 6.71 SW No 0.000 Error:Lookup 03/20/2019 02:17 PM 03/20/2019 02:22 PM 0.000 0.000 0.000 0.000 0.000 Not Reported Not Reported
03/22/2019 02:47 PM 35.96 32.72 27.86 44.96 26.06 71.0 Not Reported 3.13 W 5.82 W 6.71 SW No 0.000 Error:Lookup 03/20/2019 02:17 PM 03/20/2019 02:22 PM 0.000 0.000 0.000 0.000 0.000 Not Reported Not Reported
03/22/2019 02:52 PM 35.96 32.72 27.86 44.96 26.06 71.0 Not Reported 4.70 SW 4.47 W 7.38 W No 0.000 Error:Lookup 03/20/2019 02:17 PM 03/20/2019 02:22 PM 0.000 0.000 0.000 0.000 0.000 Not Reported Not Reported
03/22/2019 02:57 PM 35.96 32.90 27.86 44.96 26.06 71.0 Not Reported 3.13 SW 1.79 W 7.38 W No 0.000 Error:Lookup 03/20/2019 02:17 PM 03/20/2019 02:22 PM 0.000 0.000 0.000 0.000 0.000 Not Reported Not Reported
03/22/2019 03:02 PM 36.14 32.90 28.22 44.96 26.06 72.0 Not Reported 3.36 W 3.58 SW 5.82 SW No 0.000 Error:Lookup 03/20/2019 02:17 PM 03/20/2019 02:22 PM 0.000 0.000 0.000 0.000 0.000 Not Reported Not Reported
03/22/2019 03:07 PM 35.78 32.72 28.04 44.96 26.06 73.0 Not Reported 4.03 SW 1.57 S 5.82 SW No 0.000 Error:Lookup 03/20/2019 02:17 PM 03/20/2019 02:22 PM 0.000 0.000 0.000 0.000 0.000 Not Reported Not Reported
03/22/2019 03:12 PM 36.14 33.26 28.76 44.96 26.06 73.0 Not Reported 2.46 W 2.24 SW 5.14 W No 0.000 Error:Lookup 03/20/2019 02:17 PM 03/20/2019 02:22 PM 0.000 0.000 0.000 0.000 0.000 Not Reported Not Reported
03/22/2019 03:17 PM 36.14 33.08 28.40 44.96 26.06 72.0 Not Reported 3.36 SW 4.25 W 5.14 W No 0.000 Error:Lookup 03/20/2019 02:17 PM 03/20/2019 02:22 PM 0.000 0.000 0.000 0.000 0.000 Not Reported Not Reported
03/22/2019 03:22 PM 35.78 32.90 28.58 44.96 26.06 74.0 Not Reported 4.03 W 4.25 W 6.04 SW No 0.000 Error:Lookup 03/20/2019 02:17 PM 03/20/2019 02:22 PM 0.000 0.000 0.000 0.000 0.000 Not Reported Not Reported
03/22/2019 03:27 PM 35.96 33.08 28.58 44.96 26.06 73.0 Not Reported 3.13 W 3.58 SW 6.04 SW No 0.000 Error:Lookup 03/20/2019 02:17 PM 03/20/2019 02:22 PM 0.000 0.000 0.000 0.000 0.000 Not Reported Not Reported
03/22/2019 03:32 PM 35.96 33.08 28.76 44.96 26.06 74.0 Not Reported 2.91 SW 2.91 SW 5.14 S No 0.000 Error:Lookup 03/20/2019 02:17 PM 03/20/2019 02:22 PM 0.000 0.000 0.000 0.000 0.000 Not Reported Not Reported
03/22/2019 03:37 PM 35.96 33.08 28.58 44.96 26.06 73.0 Not Reported 4.03 W 2.68 SW 5.14 S No 0.000 Error:Lookup 03/20/2019 02:17 PM 03/20/2019 02:22 PM 0.000 0.000 0.000 0.000 0.000 Not Reported Not Reported
03/22/2019 03:42 PM 35.96 33.08 28.76 44.96 26.06 74.0 Not Reported 2.91 SW 3.36 SW 5.14 SW No 0.000 Error:Lookup 03/20/2019 02:17 PM 03/20/2019 02:22 PM 0.000 0.000 0.000 0.000 0.000 Not Reported Not Reported
03/22/2019 03:47 PM 36.14 33.26 29.30 44.96 26.06 75.0 Not Reported 2.46 SW 4.03 W 5.14 SW No 0.000 Error:Lookup 03/20/2019 02:17 PM 03/20/2019 02:22 PM 0.000 0.000 0.000 0.000 0.000 Not Reported Not Reported
03/22/2019 03:52 PM 35.96 33.44 29.66 44.96 26.06 77.0 Not Reported 3.13 W 3.58 NW 4.70 SW No 0.000 Error:Lookup 03/20/2019 02:17 PM 03/20/2019 02:22 PM 0.000 0.000 0.000 0.000 0.000 Not Reported Not Reported
03/22/2019 03:57 PM 35.96 33.26 29.30 44.96 26.06 75.0 Not Reported 2.24 W 2.46 SW 4.70 SW No 0.000 Error:Lookup 03/20/2019 02:17 PM 03/20/2019 02:22 PM 0.000 0.000 0.000 0.000 0.000 Not Reported Not Reported
03/22/2019 04:02 PM 35.78 33.44 30.02 44.96 26.06 78.0 Not Reported 3.58 SW 5.37 W 4.03 W No 0.000 Error:Lookup 03/20/2019 02:17 PM 03/20/2019 02:22 PM 0.000 0.000 0.000 0.000 0.000 Not Reported Not Reported
03/22/2019 04:07 PM 36.14 33.80 30.20 44.96 26.06 78.0 Not Reported 2.01 W 3.13 W 4.03 W No 0.000 Error:Lookup 03/20/2019 02:17 PM 03/20/2019 02:22 PM 0.000 0.000 0.000 0.000 0.000 Not Reported Not Reported
03/22/2019 04:12 PM 35.78 33.44 30.20 44.96 26.06 79.0 Not Reported 6.04 W 5.14 NW 8.95 SW No 0.000 Error:Lookup 03/20/2019 02:17 PM 03/20/2019 02:22 PM 0.000 0.000 0.000 0.000 0.000 Not Reported Not Reported
03/22/2019 04:17 PM 34.88 33.08 30.38 44.96 26.06 82.0 Not Reported 4.70 SW 5.14 W 8.95 SW No 0.000 Error:Lookup 03/20/2019 02:17 PM 03/20/2019 02:22 PM 0.000 0.000 0.000 0.000 0.000 Not Reported Not Reported
03/22/2019 04:22 PM 34.88 33.44 31.46 44.96 26.06 86.0 Not Reported 4.47 W 5.82 W 7.61 W No 0.000 Error:Lookup 03/20/2019 02:17 PM 03/20/2019 02:22 PM 0.000 0.000 0.000 0.000 0.000 Not Reported Not Reported
03/22/2019 04:27 PM 34.88 33.62 31.64 44.96 26.06 86.0 Not Reported 3.13 SW 6.49 SW 7.61 W No 0.000 Error:Lookup 03/20/2019 02:17 PM 03/20/2019 02:22 PM 0.000 0.000 0.000 0.000 0.000 Not Reported Not Reported
03/22/2019 04:32 PM 34.52 33.26 31.46 44.96 26.06 87.0 Not Reported 6.04 W 8.72 SW 6.49 W No 0.000 Error:Lookup 03/20/2019 02:17 PM 03/20/2019 02:22 PM 0.000 0.000 0.000 0.000 0.000 Not Reported Not Reported
03/22/2019 04:37 PM 34.52 33.26 31.64 44.96 26.06 88.0 Not Reported 3.80 W 2.68 N 6.49 W No 0.000 Error:Lookup 03/20/2019 02:17 PM 03/20/2019 02:22 PM 0.000 0.000 0.000 0.000 0.000 Not Reported Not Reported
03/22/2019 04:42 PM 34.70 33.62 32.00 44.96 26.06 89.0 Not Reported 5.37 SW 3.80 W 8.72 SW No 0.000 Error:Lookup 03/20/2019 02:17 PM 03/20/2019 02:22 PM 0.000 0.000 0.000 0.000 0.000 Not Reported Not Reported
03/22/2019 04:47 PM 34.70 33.62 32.00 44.96 26.06 89.0 Not Reported 4.03 W 4.25 W 8.72 SW No 0.000 Error:Lookup 03/20/2019 02:17 PM 03/20/2019 02:22 PM 0.000 0.000 0.000 0.000 0.000 Not Reported Not Reported
03/22/2019 04:52 PM 35.06 33.80 31.82 44.96 26.06 86.0 Not Reported 3.80 W 2.91 W 6.71 SW No 0.000 Error:Lookup 03/20/2019 02:17 PM 03/20/2019 02:22 PM 0.000 0.000 0.000 0.000 0.000 Not Reported Not Reported
03/22/2019 04:57 PM 34.88 33.62 31.82 44.96 26.06 87.0 Not Reported 5.37 W 5.59 W 6.71 SW No 0.000 Error:Lookup 03/20/2019 02:17 PM 03/20/2019 02:22 PM 0.000 0.000 0.000 0.000 0.000 Not Reported Not Reported
03/22/2019 05:02 PM 35.06 33.98 32.36 44.06 26.06 89.0 Not Reported 4.03 SW 3.80 W 7.38 W No 0.000 Error:Lookup 03/20/2019 02:17 PM 03/20/2019 02:22 PM 0.000 0.000 0.000 0.000 0.000 Not Reported Not Reported
03/22/2019 05:07 PM 35.06 33.80 31.82 44.06 26.06 87.0 Not Reported 6.26 W 5.82 W 7.38 W No 0.000 Error:Lookup 03/20/2019 02:17 PM 03/20/2019 02:22 PM 0.000 0.000 0.000 0.000 0.000 Not Reported Not Reported
03/22/2019 05:12 PM 35.06 33.62 31.64 44.06 26.06 86.0 Not Reported 4.47 W 3.58 SW 10.07 W No 0.000 Error:Lookup 03/20/2019 02:17 PM 03/20/2019 02:22 PM 0.000 0.000 0.000 0.000 0.000 Not Reported Not Reported
03/22/2019 05:17 PM 35.06 33.44 31.10 43.34 26.06 85.0 Not Reported 4.70 W 7.61 W 10.07 W No 0.000 Error:Lookup 03/20/2019 02:17 PM 03/20/2019 02:22 PM 0.000 0.000 0.000 0.000 0.000 Not Reported Not Reported
03/22/2019 05:22 PM 35.06 33.44 31.28 43.16 26.06 85.0 Not Reported 5.37 W 8.28 W 8.05 SW No 0.000 Error:Lookup 03/20/2019 02:17 PM 03/20/2019 02:22 PM 0.000 0.000 0.000 0.000 0.000 Not Reported Not Reported
03/22/2019 05:27 PM 35.24 33.62 31.46 43.16 26.06 85.0 Not Reported 5.59 W 5.14 SW 8.05 SW No 0.000 Error:Lookup 03/20/2019 02:17 PM 03/20/2019 02:22 PM 0.000 0.000 0.000 0.000 0.000 Not Reported Not Reported
03/22/2019 05:32 PM 35.24 33.80 31.64 43.16 26.06 86.0 Not Reported 4.47 SW 5.59 SW 8.28 W No 0.000 Error:Lookup 03/20/2019 02:17 PM 03/20/2019 02:22 PM 0.000 0.000 0.000 0.000 0.000 Not Reported Not Reported
03/22/2019 05:37 PM 35.24 33.62 31.28 42.98 26.06 84.0 Not Reported 5.82 SW 7.83 SW 8.28 W No 0.000 Error:Lookup 03/20/2019 02:17 PM 03/20/2019 02:22 PM 0.000 0.000 0.000 0.000 0.000 Not Reported Not Reported
03/22/2019 05:42 PM 35.06 33.62 31.46 42.80 26.06 86.0 Not Reported 5.14 W 4.70 SW 8.05 W No 0.000 Error:Lookup 03/20/2019 02:17 PM 03/20/2019 02:22 PM 0.000 0.000 0.000 0.000 0.000 Not Reported Not Reported
03/22/2019 05:47 PM 34.88 33.62 31.82 42.44 26.06 87.0 Not Reported 6.04 W 5.59 SW 8.05 W No 0.000 Error:Lookup 03/20/2019 02:17 PM 03/20/2019 02:22 PM 0.000 0.000 0.000 0.000 0.000 Not Reported Not Reported
03/22/2019 05:52 PM 34.70 33.44 31.64 42.26 26.06 87.0 Not Reported 5.59 W 4.25 W 7.38 W No 0.000 Error:Lookup 03/20/2019 02:17 PM 03/20/2019 02:22 PM 0.000 0.000 0.000 0.000 0.000 Not Reported Not Reported
03/22/2019 05:57 PM 34.88 33.62 32.00 41.90 26.06 88.0 Not Reported 5.59 SW 4.92 W 7.38 W No 0.000 Error:Lookup 03/20/2019 02:17 PM 03/20/2019 02:22 PM 0.000 0.000 0.000 0.000 0.000 Not Reported Not Reported
03/22/2019 06:02 PM 34.70 33.62 32.00 41.72 26.06 89.0 Not Reported 5.14 SW 5.82 SW 7.38 SW No 0.000 Error:Lookup 03/20/2019 02:17 PM 03/20/2019 02:22 PM 0.000 0.000 0.000 0.000 0.000 Not Reported Not Reported
03/22/2019 06:07 PM 34.70 33.62 32.00 41.72 26.06 89.0 Not Reported 4.47 W 4.25 SW 7.38 SW No 0.000 Error:Lookup 03/20/2019 02:17 PM 03/20/2019 02:22 PM 0.000 0.000 0.000 0.000 0.000 Not Reported Not Reported
03/22/2019 06:12 PM 34.52 33.44 32.00 41.36 26.06 90.0 Not Reported 4.03 W 3.13 W 6.93 W No 0.000 Error:Lookup 03/20/2019 02:17 PM 03/20/2019 02:22 PM 0.000 0.000 0.000 0.000 0.000 Not Reported Not Reported
03/22/2019 06:17 PM 34.16 33.08 31.82 41.36 26.06 90.0 Not Reported 4.70 W 6.49 SW 6.93 W No 0.000 Error:Lookup 03/20/2019 02:17 PM 03/20/2019 02:22 PM 0.000 0.000 0.000 0.000 0.000 Not Reported Not Reported
03/22/2019 06:22 PM 34.16 33.08 31.82 41.18 26.06 90.0 Not Reported 3.80 SW 4.03 SW 6.93 W No 0.000 Error:Lookup 03/20/2019 02:17 PM 03/20/2019 02:22 PM 0.000 0.000 0.000 0.000 0.000 Not Reported Not Reported
03/22/2019 06:27 PM 34.16 32.90 31.46 41.18 26.06 89.0 Not Reported 4.70 W 6.04 SW 6.93 W No 0.000 Error:Lookup 03/20/2019 02:17 PM 03/20/2019 02:22 PM 0.000 0.000 0.000 0.000 0.000 Not Reported Not Reported
03/22/2019 06:32 PM 34.16 33.08 31.46 41.18 26.06 88.0 Not Reported 2.46 W 2.46 NW 7.83 W No 0.000 Error:Lookup 03/20/2019 02:17 PM 03/20/2019 02:22 PM 0.000 0.000 0.000 0.000 0.000 Not Reported Not Reported
03/22/2019 06:37 PM 34.70 33.08 31.10 41.00 26.06 86.0 Not Reported 2.91 W 3.36 W 7.83 W No 0.000 Error:Lookup 03/20/2019 02:17 PM 03/20/2019 02:22 PM 0.000 0.000 0.000 0.000 0.000 Not Reported Not Reported
03/22/2019 06:42 PM 34.88 33.44 31.64 41.00 26.06 87.0 Not Reported 2.91 SW 3.13 W 4.70 N No 0.000 Error:Lookup 03/20/2019 02:17 PM 03/20/2019 02:22 PM 0.000 0.000 0.000 0.000 0.000 Not Reported Not Reported
03/22/2019 06:47 PM 34.52 33.08 31.28 41.00 26.06 87.0 Not Reported 5.37 W 7.83 W 4.70 N No 0.000 Error:Lookup 03/20/2019 02:17 PM 03/20/2019 02:22 PM 0.000 0.000 0.000 0.000 0.000 Not Reported Not Reported
03/22/2019 06:52 PM 34.52 33.08 31.28 40.82 26.06 87.0 Not Reported 4.25 W 5.14 W 9.84 W No 0.000 Error:Lookup 03/20/2019 02:17 PM 03/20/2019 02:22 PM 0.000 0.000 0.000 0.000 0.000 Not Reported Not Reported
03/22/2019 06:57 PM 34.52 33.08 31.28 40.82 26.06 87.0 Not Reported 4.47 W 1.57 W 9.84 W No 0.000 Error:Lookup 03/20/2019 02:17 PM 03/20/2019 02:22 PM 0.000 0.000 0.000 0.000 0.000 Not Reported Not Reported
03/22/2019 07:02 PM 34.52 33.08 31.28 40.64 26.06 87.0 Not Reported 4.92 W 3.36 NW 8.72 W No 0.000 Error:Lookup 03/20/2019 02:17 PM 03/20/2019 02:22 PM 0.000 0.000 0.000 0.000 0.000 Not Reported Not Reported
03/22/2019 07:07 PM 34.16 32.90 31.28 40.64 26.06 88.0 Not Reported 5.82 W 4.70 SW 8.72 W No 0.000 Error:Lookup 03/20/2019 02:17 PM 03/20/2019 02:22 PM 0.000 0.000 0.000 0.000 0.000 Not Reported Not Reported
03/22/2019 07:12 PM 34.16 32.90 31.46 40.64 26.06 88.0 Not Reported 4.03 W 3.80 NW 7.61 W No 0.000 Error:Lookup 03/20/2019 02:17 PM 03/20/2019 02:22 PM 0.000 0.000 0.000 0.000 0.000 Not Reported Not Reported
03/22/2019 07:17 PM 34.34 33.08 31.28 40.28 26.06 87.0 Not Reported 3.13 W 4.70 SW 7.61 W No 0.000 Error:Lookup 03/20/2019 02:17 PM 03/20/2019 02:22 PM 0.000 0.000 0.000 0.000 0.000 Not Reported Not Reported
03/22/2019 07:22 PM 34.52 33.08 31.28 39.56 26.06 87.0 Not Reported 3.13 W 2.46 SW 6.71 W No 0.000 Error:Lookup 03/20/2019 02:17 PM 03/20/2019 02:22 PM 0.000 0.000 0.000 0.000 0.000 Not Reported Not Reported
03/22/2019 07:27 PM 34.52 33.26 31.46 39.56 26.06 87.0 Not Reported 3.58 W 3.36 SW 6.71 W No 0.000 Error:Lookup 03/20/2019 02:17 PM 03/20/2019 02:22 PM 0.000 0.000 0.000 0.000 0.000 Not Reported Not Reported
03/22/2019 07:32 PM 34.34 33.08 31.46 39.20 26.06 88.0 Not Reported 3.36 W 3.58 W 9.17 SW No 0.000 Error:Lookup 03/20/2019 02:17 PM 03/20/2019 02:22 PM 0.000 0.000 0.000 0.000 0.000 Not Reported Not Reported
03/22/2019 07:37 PM 34.16 33.08 31.46 39.02 26.06 88.0 Not Reported 4.70 SW 6.26 SW 9.17 SW No 0.000 Error:Lookup 03/20/2019 02:17 PM 03/20/2019 02:22 PM 0.000 0.000 0.000 0.000 0.000 Not Reported Not Reported
03/22/2019 07:42 PM 34.16 33.08 31.64 38.84 26.06 89.0 Not Reported 3.80 W 2.24 W 7.38 SW No 0.000 Error:Lookup 03/20/2019 02:17 PM 03/20/2019 02:22 PM 0.000 0.000 0.000 0.000 0.000 Not Reported Not Reported
03/22/2019 07:47 PM 34.16 33.08 31.64 38.84 26.06 89.0 Not Reported 2.46 W 4.03 W 7.38 SW No 0.000 Error:Lookup 03/20/2019 02:17 PM 03/20/2019 02:22 PM 0.000 0.000 0.000 0.000 0.000 Not Reported Not Reported
03/22/2019 07:52 PM 33.98 32.90 31.64 38.84 26.06 90.0 Not Reported 2.68 SW 2.91 W 5.59 SW No 0.000 Error:Lookup 03/20/2019 02:17 PM 03/20/2019 02:22 PM 0.000 0.000 0.000 0.000 0.000 Not Reported Not Reported
03/22/2019 07:57 PM 33.80 32.90 31.82 38.66 26.06 91.0 Not Reported 4.47 W 4.47 SW 5.59 SW No 0.000 Error:Lookup 03/20/2019 02:17 PM 03/20/2019 02:22 PM 0.000 0.000 0.000 0.000 0.000 Not Reported Not Reported
03/22/2019 08:02 PM 33.80 32.90 31.82 37.94 26.06 91.0 Not Reported 3.58 W 3.58 NW 5.82 SW No 0.000 Error:Lookup 03/20/2019 02:17 PM 03/20/2019 02:22 PM 0.000 0.000 0.000 0.000 0.000 Not Reported Not Reported
03/22/2019 08:07 PM 33.62 32.90 32.00 37.76 26.06 92.0 Not Reported 1.79 W 1.79 W 5.82 SW No 0.000 Error:Lookup 03/20/2019 02:17 PM 03/20/2019 02:22 PM 0.000 0.000 0.000 0.000 0.000 Not Reported Not Reported
03/22/2019 08:12 PM 33.44 32.72 32.00 37.22 26.06 93.0 Not Reported 1.57 SW 2.01 SW 5.82 W No 0.000 Error:Lookup 03/20/2019 02:17 PM 03/20/2019 02:22 PM 0.000 0.000 0.000 0.000 0.000 Not Reported Not Reported
03/22/2019 08:17 PM 33.26 32.54 31.82 36.86 26.06 94.0 Not Reported 2.01 SW 3.36 W 5.82 W No 0.000 Error:Lookup 03/20/2019 02:17 PM 03/20/2019 02:22 PM 0.000 0.000 0.000 0.000 0.000 Not Reported Not Reported
03/22/2019 08:22 PM 33.26 32.72 32.00 36.68 26.06 94.0 Not Reported 2.24 W 1.79 SW 3.36 W No 0.000 Error:Lookup 03/20/2019 02:17 PM 03/20/2019 02:22 PM 0.000 0.000 0.000 0.000 0.000 Not Reported Not Reported
03/22/2019 08:27 PM 33.26 32.72 32.00 36.50 26.06 94.0 Not Reported 2.68 W 3.36 SW 3.36 W No 0.000 Error:Lookup 03/20/2019 02:17 PM 03/20/2019 02:22 PM 0.000 0.000 0.000 0.000 0.000 Not Reported Not Reported
03/22/2019 08:32 PM 33.08 32.54 32.00 36.50 26.06 94.0 Not Reported 1.57 W 1.79 NW 3.58 NW No 0.000 Error:Lookup 03/20/2019 02:17 PM 03/20/2019 02:22 PM 0.000 0.000 0.000 0.000 0.000 Not Reported Not Reported
03/22/2019 08:37 PM 33.26 32.72 32.00 36.50 26.06 94.0 Not Reported 2.24 W 1.79 NW 3.58 NW No 0.000 Error:Lookup 03/20/2019 02:17 PM 03/20/2019 02:22 PM 0.000 0.000 0.000 0.000 0.000 Not Reported Not Reported
03/22/2019 08:42 PM 32.90 32.54 32.00 36.50 26.06 95.0 Not Reported 1.79 W 2.24 SW 4.03 SW No 0.000 Error:Lookup 03/20/2019 02:17 PM 03/20/2019 02:22 PM 0.000 0.000 0.000 0.000 0.000 Not Reported Not Reported
03/22/2019 08:47 PM 32.72 32.36 32.00 36.50 26.06 95.0 Not Reported 2.01 SW 2.91 SW 4.03 SW No 0.000 Error:Lookup 03/20/2019 02:17 PM 03/20/2019 02:22 PM 0.000 0.000 0.000 0.000 0.000 Not Reported Not Reported
03/22/2019 08:52 PM 32.72 32.36 32.00 36.50 26.06 96.0 Not Reported 2.24 W 2.46 W 3.36 SW No 0.000 Error:Lookup 03/20/2019 02:17 PM 03/20/2019 02:22 PM 0.000 0.000 0.000 0.000 0.000 Not Reported Not Reported
03/22/2019 08:57 PM 32.72 32.36 32.00 36.50 26.06 96.0 Not Reported 2.68 W 0.67 W 3.36 SW No 0.000 Error:Lookup 03/20/2019 02:17 PM 03/20/2019 02:22 PM 0.000 0.000 0.000 0.000 0.000 Not Reported Not Reported
03/22/2019 09:02 PM 32.54 32.36 32.00 36.50 26.06 96.0 Not Reported 2.24 SW 1.79 W 3.36 W No 0.000 Error:Lookup 03/20/2019 02:17 PM 03/20/2019 02:22 PM 0.000 0.000 0.000 0.000 0.000 Not Reported Not Reported
03/22/2019 09:07 PM 32.54 32.18 32.00 36.50 26.06 97.0 Not Reported 2.68 W 2.24 W 3.36 W No 0.000 Error:Lookup 03/20/2019 02:17 PM 03/20/2019 02:22 PM 0.000 0.000 0.000 0.000 0.000 Not Reported Not Reported
03/22/2019 09:12 PM 32.36 32.18 31.82 36.50 26.06 97.0 Not Reported 2.01 W 2.46 W 3.36 W No 0.000 Error:Lookup 03/20/2019 02:17 PM 03/20/2019 02:22 PM 0.000 0.000 0.000 0.000 0.000 Not Reported Not Reported
03/22/2019 09:17 PM 32.18 32.00 31.82 36.50 26.06 97.0 Not Reported 1.57 NW 1.12 SW 3.36 W No 0.000 Error:Lookup 03/20/2019 02:17 PM 03/20/2019 02:22 PM 0.000 0.000 0.000 0.000 0.000 Not Reported Not Reported
03/22/2019 09:22 PM 32.18 32.00 31.82 36.50 26.06 97.0 Not Reported 1.34 SW 0.67 SW 2.91 SW No 0.000 Error:Lookup 03/20/2019 02:17 PM 03/20/2019 02:22 PM 0.000 0.000 0.000 0.000 0.000 Not Reported Not Reported
03/22/2019 09:27 PM 32.18 32.00 31.82 36.50 26.06 98.0 Not Reported 2.01 W 2.46 SW 2.91 SW No 0.000 Error:Lookup 03/20/2019 02:17 PM 03/20/2019 02:22 PM 0.000 0.000 0.000 0.000 0.000 Not Reported Not Reported
03/22/2019 09:32 PM 32.00 32.00 31.82 36.50 26.06 98.0 Not Reported 2.24 SW 2.68 W 3.36 SW No 0.000 Error:Lookup 03/20/2019 02:17 PM 03/20/2019 02:22 PM 0.000 0.000 0.000 0.000 0.000 Not Reported Not Reported
03/22/2019 09:37 PM 32.00 32.00 31.64 36.50 26.06 98.0 Not Reported 2.24 SW 2.24 W 3.36 SW No 0.000 Error:Lookup 03/20/2019 02:17 PM 03/20/2019 02:22 PM 0.000 0.000 0.000 0.000 0.000 Not Reported Not Reported
03/22/2019 09:42 PM 32.00 32.00 31.64 36.50 26.06 98.0 Not Reported 1.57 SW 1.79 SW 3.13 SW No 0.000 Error:Lookup 03/20/2019 02:17 PM 03/20/2019 02:22 PM 0.000 0.000 0.000 0.000 0.000 Not Reported Not Reported
03/22/2019 09:47 PM 32.00 31.82 31.64 36.50 26.06 98.0 Not Reported 0.89 SW 1.34 W 3.13 SW No 0.000 Error:Lookup 03/20/2019 02:17 PM 03/20/2019 02:22 PM 0.000 0.000 0.000 0.000 0.000 Not Reported Not Reported
03/22/2019 09:52 PM 32.00 32.00 31.82 36.50 26.06 98.0 Not Reported 1.12 W 1.12 W 2.01 W No 0.000 Error:Lookup 03/20/2019 02:17 PM 03/20/2019 02:22 PM 0.000 0.000 0.000 0.000 0.000 Not Reported Not Reported
03/22/2019 09:57 PM 32.00 32.00 31.82 36.50 26.06 98.0 Not Reported 1.79 W 2.01 SW 2.01 W No 0.000 Error:Lookup 03/20/2019 02:17 PM 03/20/2019 02:22 PM 0.000 0.000 0.000 0.000 0.000 Not Reported Not Reported
03/22/2019 10:02 PM 32.00 32.00 31.82 36.50 26.06 98.0 Not Reported 1.57 W 1.12 NW 2.91 W No 0.000 Error:Lookup 03/20/2019 02:17 PM 03/20/2019 02:22 PM 0.000 0.000 0.000 0.000 0.000 Not Reported Not Reported
03/22/2019 10:07 PM 32.00 32.00 31.82 36.50 26.06 98.0 Not Reported 0.89 NW 2.01 NW 2.91 W No 0.000 Error:Lookup 03/20/2019 02:17 PM 03/20/2019 02:22 PM 0.000 0.000 0.000 0.000 0.000 Not Reported Not Reported
03/22/2019 10:12 PM 32.00 32.00 31.82 36.50 26.06 98.0 Not Reported 2.01 SW 2.68 W 2.01 NW No 0.000 Error:Lookup 03/20/2019 02:17 PM 03/20/2019 02:22 PM 0.000 0.000 0.000 0.000 0.000 Not Reported Not Reported
03/22/2019 10:17 PM 32.00 32.00 31.82 36.50 26.06 98.0 Not Reported 0.67 NW 1.12 W 2.01 NW No 0.000 Error:Lookup 03/20/2019 02:17 PM 03/20/2019 02:22 PM 0.000 0.000 0.000 0.000 0.000 Not Reported Not Reported
03/22/2019 10:22 PM 32.00 32.00 31.82 36.50 26.06 98.0 Not Reported 1.12 W 0.45 SW 2.68 W No 0.000 Error:Lookup 03/20/2019 02:17 PM 03/20/2019 02:22 PM 0.000 0.000 0.000 0.000 0.000 Not Reported Not Reported
03/22/2019 10:27 PM 32.00 32.00 32.00 36.50 26.06 98.0 Not Reported 1.34 NW 0.89 W 2.68 W No 0.000 Error:Lookup 03/20/2019 02:17 PM 03/20/2019 02:22 PM 0.000 0.000 0.000 0.000 0.000 Not Reported Not Reported
03/22/2019 10:32 PM 32.00 32.00 32.00 36.50 26.06 98.0 Not Reported 2.46 W 2.24 SW 2.91 NW No 0.000 Error:Lookup 03/20/2019 02:17 PM 03/20/2019 02:22 PM 0.000 0.000 0.000 0.000 0.000 Not Reported Not Reported
03/22/2019 10:37 PM 32.18 32.00 32.00 36.50 26.06 98.0 Not Reported 1.79 W 3.13 SW 2.91 NW No 0.000 Error:Lookup 03/20/2019 02:17 PM 03/20/2019 02:22 PM 0.000 0.000 0.000 0.000 0.000 Not Reported Not Reported
03/22/2019 10:42 PM 32.18 32.00 32.00 36.50 26.06 98.0 Not Reported 1.79 W 2.24 W 4.47 W No 0.000 Error:Lookup 03/20/2019 02:17 PM 03/20/2019 02:22 PM 0.000 0.000 0.000 0.000 0.000 Not Reported Not Reported
03/22/2019 10:47 PM 32.18 32.00 32.00 36.50 26.06 98.0 Not Reported 1.12 W 1.34 NW 4.47 W No 0.000 Error:Lookup 03/20/2019 02:17 PM 03/20/2019 02:22 PM 0.000 0.000 0.000 0.000 0.000 Not Reported Not Reported
03/22/2019 10:52 PM 32.18 32.00 32.00 36.50 26.06 98.0 Not Reported 2.68 SW 3.13 SW 2.24 W No 0.000 Error:Lookup 03/20/2019 02:17 PM 03/20/2019 02:22 PM 0.000 0.000 0.000 0.000 0.000 Not Reported Not Reported
03/22/2019 10:57 PM 32.00 32.00 31.82 36.50 26.06 98.0 Not Reported 1.57 W 2.24 SW 2.24 W No 0.000 Error:Lookup 03/20/2019 02:17 PM 03/20/2019 02:22 PM 0.000 0.000 0.000 0.000 0.000 Not Reported Not Reported
03/22/2019 11:02 PM 32.18 32.00 32.00 36.50 26.06 98.0 Not Reported 1.12 W 1.57 SW 3.36 SW No 0.000 Error:Lookup 03/20/2019 02:17 PM 03/20/2019 02:22 PM 0.000 0.000 0.000 0.000 0.000 Not Reported Not Reported
03/22/2019 11:07 PM 32.18 32.18 32.00 36.50 26.06 98.0 Not Reported 2.24 W 2.01 W 3.36 SW No 0.000 Error:Lookup 03/20/2019 02:17 PM 03/20/2019 02:22 PM 0.000 0.000 0.000 0.000 0.000 Not Reported Not Reported
03/22/2019 11:12 PM 32.18 32.00 32.00 36.50 26.06 98.0 Not Reported 1.57 W 1.12 W 3.36 W No 0.000 Error:Lookup 03/20/2019 02:17 PM 03/20/2019 02:22 PM 0.000 0.000 0.000 0.000 0.000 Not Reported Not Reported
03/22/2019 11:17 PM 32.18 32.00 32.00 36.50 26.06 98.0 Not Reported 1.12 W 1.57 W 3.36 W No 0.000 Error:Lookup 03/20/2019 02:17 PM 03/20/2019 02:22 PM 0.000 0.000 0.000 0.000 0.000 Not Reported Not Reported
03/22/2019 11:22 PM 32.36 32.36 32.18 36.50 26.06 98.0 Not Reported 2.24 W 2.24 W 2.68 SW No 0.000 Error:Lookup 03/20/2019 02:17 PM 03/20/2019 02:22 PM 0.000 0.000 0.000 0.000 0.000 Not Reported Not Reported
03/22/2019 11:27 PM 32.54 32.36 32.18 36.50 26.06 98.0 Not Reported 3.80 SW 2.24 W 2.68 SW No 0.000 Error:Lookup 03/20/2019 02:17 PM 03/20/2019 02:22 PM 0.000 0.000 0.000 0.000 0.000 Not Reported Not Reported
03/22/2019 11:32 PM 32.54 32.36 32.18 36.50 26.06 98.0 Not Reported 1.12 W 1.12 W 5.14 SW No 0.000 Error:Lookup 03/20/2019 02:17 PM 03/20/2019 02:22 PM 0.000 0.000 0.000 0.000 0.000 Not Reported Not Reported
03/22/2019 11:37 PM 32.36 32.18 32.00 36.50 26.06 98.0 Not Reported 0.89 SW 1.12 NW 5.14 SW No 0.000 Error:Lookup 03/20/2019 02:17 PM 03/20/2019 02:22 PM 0.000 0.000 0.000 0.000 0.000 Not Reported Not Reported
03/22/2019 11:42 PM 32.54 32.36 32.18 36.50 26.06 98.0 Not Reported 2.46 W 1.34 W 2.68 W No 0.000 Error:Lookup 03/20/2019 02:17 PM 03/20/2019 02:22 PM 0.000 0.000 0.000 0.000 0.000 Not Reported Not Reported
03/22/2019 11:47 PM 32.90 32.72 32.54 36.50 26.06 98.0 Not Reported 2.91 W 0.89 W 2.68 W No 0.000 Error:Lookup 03/20/2019 02:17 PM 03/20/2019 02:22 PM 0.000 0.000 0.000 0.000 0.000 Not Reported Not Reported
03/22/2019 11:52 PM 32.72 32.36 32.18 36.50 26.06 97.0 Not Reported 2.24 W 2.46 W 4.03 SW No 0.000 Error:Lookup 03/20/2019 02:17 PM 03/20/2019 02:22 PM 0.000 0.000 0.000 0.000 0.000 Not Reported Not Reported
03/22/2019 11:57 PM 32.90 32.54 32.36 36.50 26.06 97.0 Not Reported 4.03 SW 2.46 W 4.03 SW No 0.000 Error:Lookup 03/20/2019 02:17 PM 03/20/2019 02:22 PM 0.000 0.000 0.000 0.000 0.000 Not Reported Not Reported